Aviation Digital Data Service (ADDS)

Output produced by TAFs form (2036 UTC 20 July 2018)
found at http://www.aviationweather.gov/adds/tafs/
 
KRNH 201731Z 2018/2118 34008KT P6SM VCSH SCT030 OVC050 
     FM210000 35006KT P6SM BKN060 
     TEMPO 2109/2113 BKN025